Terminal Aerodrome Forecast
Issued by NWS Nashville, TN

Home | Current Version | Previous Version | Text Only | Print | Product List | Glossary On
Versions: 1 2 3 4 5 6 7 8 9 10 11 12 13 14 15 16 17 18
000
FTUS44 KOHX 231124
TAFCSV
TAF
KCSV 231124Z 2312/2412 00000KT 3SM BR SCT120 BKN250
      TEMPO 2312/2314 1SM BR
     FM231900 VRB03KT P6SM VCTS BKN045CB
     FM240100 00000KT 5SM BR SCT120
     FM240600 00000KT 2SM BR SCT120=

USA.gov is the U.S. government's official web portal to all federal, state and local government web resources and services.